Aviation weather information 2019-02-24 01:53 UTC

TAF(FTEO31)
FTEO31 EETN 232300
TAF EETN 232300Z 2400/2424 26010KT 9999 SCT040 TEMPO 2400/2404
     2000 BR BKN004 BECMG 2404/2406 BKN003 TEMPO 2404/2408 0700 FZFG
     TEMPO 2409/2413 27016G28KT OVC005 BECMG 2413/2415 BKN012=

TAF(FTEO33)
FTEO33 EEEI 232330
TAF EEEI 232330Z 2400/2424 24010KT 9999 SCT010 SCT040 PROB40 TEMPO 2400/2405 1500 BR BKN002 TEMPO 2405/2409 0600 FZFG VV002 TEMPO 2409/2411 4000 BR BKN004 PROB40 TEMPO 2411/2415 BKN008 TEMPO 2415/2424 28013G23KT=

Weather observation (METAR/SPECI)
SPECI EETN 240152Z 26011KT 9999 BKN004 01/01 Q1026 R08/290195 =
METAR EEEI 240150Z 24009KT 7000 OVC002 01/01 Q1026 R24/290095=
METAR EETU 240150Z AUTO 26012KT 0750 R26/P2000N FG OVC001/// 01/01
Q1026=
METAR EEPU 240050Z NIL=
METAR EEKE 240150Z AUTO 28007KT 250V320 2200NDV BR SCT002 OVC005
02/02 Q1029=
METAR EEKA 240050Z NIL=